sensor_id;sensor_type;location;lat;lon;timestamp;pressure;altitude;pressure_sealevel;temperature;humidity
79269;BME280;68714;48.586;7.772;2023-04-25T00:01:33;99308.84;;;11.55;49.12
79269;BME280;68714;48.586;7.772;2023-04-25T00:04:01;99314.13;;;11.55;49.13
79269;BME280;68714;48.586;7.772;2023-04-25T00:06:27;99312.31;;;11.56;48.88
79269;BME280;68714;48.586;7.772;2023-04-25T00:08:53;99318.56;;;11.55;48.89
79269;BME280;68714;48.586;7.772;2023-04-25T00:11:19;99317.69;;;11.54;49.41
79269;BME280;68714;48.586;7.772;2023-04-25T00:13:44;99323.06;;;11.53;49.16
79269;BME280;68714;48.586;7.772;2023-04-25T00:16:11;99317.94;;;11.50;49.29
79269;BME280;68714;48.586;7.772;2023-04-25T00:18:39;99320.56;;;11.50;49.16
79269;BME280;68714;48.586;7.772;2023-04-25T00:21:05;99319.72;;;11.49;49.18
79269;BME280;68714;48.586;7.772;2023-04-25T00:23:31;99317.00;;;11.51;49.29
79269;BME280;68714;48.586;7.772;2023-04-25T00:25:57;99317.84;;;11.51;49.71
79269;BME280;68714;48.586;7.772;2023-04-25T00:28:22;99316.00;;;11.53;49.55
79269;BME280;68714;48.586;7.772;2023-04-25T00:30:47;99319.50;;;11.54;49.72
79269;BME280;68714;48.586;7.772;2023-04-25T00:33:13;99317.59;;;11.56;49.49
79269;BME280;68714;48.586;7.772;2023-04-25T00:35:38;99317.53;;;11.57;49.48
79269;BME280;68714;48.586;7.772;2023-04-25T00:38:03;99329.06;;;11.56;49.62
79269;BME280;68714;48.586;7.772;2023-04-25T00:40:29;99331.41;;;11.45;49.81
79269;BME280;68714;48.586;7.772;2023-04-25T00:42:54;99327.72;;;11.32;49.97
79269;BME280;68714;48.586;7.772;2023-04-25T00:45:20;99327.41;;;11.20;50.44
79269;BME280;68714;48.586;7.772;2023-04-25T00:47:45;99328.72;;;11.12;50.90
79269;BME280;68714;48.586;7.772;2023-04-25T00:50:11;99320.28;;;11.05;51.12
79269;BME280;68714;48.586;7.772;2023-04-25T00:52:42;99315.22;;;11.00;51.11
79269;BME280;68714;48.586;7.772;2023-04-25T00:55:09;99315.22;;;11.00;51.21
79269;BME280;68714;48.586;7.772;2023-04-25T00:57:37;99317.19;;;10.97;51.41
79269;BME280;68714;48.586;7.772;2023-04-25T01:00:04;99313.84;;;10.93;51.61
79269;BME280;68714;48.586;7.772;2023-04-25T01:02:32;99311.13;;;10.95;51.70
79269;BME280;68714;48.586;7.772;2023-04-25T01:04:57;99317.66;;;10.87;51.70
79269;BME280;68714;48.586;7.772;2023-04-25T01:07:23;99308.19;;;10.83;51.90
79269;BME280;68714;48.586;7.772;2023-04-25T01:09:51;99310.81;;;10.83;52.20
79269;BME280;68714;48.586;7.772;2023-04-25T01:12:16;99311.66;;;10.84;52.32
79269;BME280;68714;48.586;7.772;2023-04-25T01:14:42;99303.75;;;10.84;52.13
79269;BME280;68714;48.586;7.772;2023-04-25T01:17:08;99300.03;;;10.88;52.26
79269;BME280;68714;48.586;7.772;2023-04-25T01:19:34;99297.31;;;10.89;52.37
79269;BME280;68714;48.586;7.772;2023-04-25T01:22:00;99302.44;;;10.93;52.67
79269;BME280;68714;48.586;7.772;2023-04-25T01:24:26;99305.16;;;10.91;52.71
79269;BME280;68714;48.586;7.772;2023-04-25T01:26:52;99298.22;;;10.88;52.84
79269;BME280;68714;48.586;7.772;2023-04-25T01:29:20;99295.59;;;10.88;52.76
79269;BME280;68714;48.586;7.772;2023-04-25T01:31:46;99292.03;;;10.89;53.05
79269;BME280;68714;48.586;7.772;2023-04-25T01:34:12;99293.59;;;10.94;52.88
79269;BME280;68714;48.586;7.772;2023-04-25T01:36:38;99297.75;;;10.98;52.90
79269;BME280;68714;48.586;7.772;2023-04-25T01:39:04;99299.38;;;11.00;52.68
79269;BME280;68714;48.586;7.772;2023-04-25T01:41:30;99296.91;;;10.97;53.11
79269;BME280;68714;48.586;7.772;2023-04-25T01:43:56;99293.66;;;10.92;53.35
79269;BME280;68714;48.586;7.772;2023-04-25T01:46:21;99295.44;;;10.92;52.98
79269;BME280;68714;48.586;7.772;2023-04-25T01:48:47;99297.16;;;10.93;53.21
79269;BME280;68714;48.586;7.772;2023-04-25T01:51:12;99296.63;;;10.86;53.32
79269;BME280;68714;48.586;7.772;2023-04-25T01:53:38;99296.22;;;10.76;53.37
79269;BME280;68714;48.586;7.772;2023-04-25T01:56:04;99303.06;;;10.63;53.62
79269;BME280;68714;48.586;7.772;2023-04-25T01:58:30;99300.88;;;10.53;53.65
79269;BME280;68714;48.586;7.772;2023-04-25T02:00:55;99298.69;;;10.44;53.87
79269;BME280;68714;48.586;7.772;2023-04-25T02:03:21;99290.16;;;10.39;54.03
79269;BME280;68714;48.586;7.772;2023-04-25T02:05:46;99290.22;;;10.38;54.33
79269;BME280;68714;48.586;7.772;2023-04-25T02:08:12;99296.84;;;10.27;54.56
79269;BME280;68714;48.586;7.772;2023-04-25T02:10:37;99290.94;;;10.22;54.32
79269;BME280;68714;48.586;7.772;2023-04-25T02:13:03;99291.16;;;10.17;54.48
79269;BME280;68714;48.586;7.772;2023-04-25T02:15:30;99283.88;;;10.23;54.43
79269;BME280;68714;48.586;7.772;2023-04-25T02:17:56;99280.88;;;10.30;54.35
79269;BME280;68714;48.586;7.772;2023-04-25T02:20:22;99284.94;;;10.38;54.38
79269;BME280;68714;48.586;7.772;2023-04-25T02:22:48;99283.94;;;10.40;54.53
79269;BME280;68714;48.586;7.772;2023-04-25T02:25:14;99286.44;;;10.43;54.20
79269;BME280;68714;48.586;7.772;2023-04-25T02:27:41;99287.28;;;10.44;54.50
79269;BME280;68714;48.586;7.772;2023-04-25T02:30:07;99274.16;;;10.42;54.68
79269;BME280;68714;48.586;7.772;2023-04-25T02:32:32;99282.94;;;10.43;54.47
79269;BME280;68714;48.586;7.772;2023-04-25T02:35:02;99274.09;;;10.44;54.39
79269;BME280;68714;48.586;7.772;2023-04-25T02:37:31;99283.50;;;10.49;54.43
79269;BME280;68714;48.586;7.772;2023-04-25T02:39:56;99288.53;;;10.54;54.55
79269;BME280;68714;48.586;7.772;2023-04-25T02:42:22;99275.50;;;10.51;54.34
79269;BME280;68714;48.586;7.772;2023-04-25T02:44:47;99280.78;;;10.51;54.47
79269;BME280;68714;48.586;7.772;2023-04-25T02:47:13;99280.63;;;10.54;54.47
79269;BME280;68714;48.586;7.772;2023-04-25T02:49:38;99286.50;;;10.59;54.46
79269;BME280;68714;48.586;7.772;2023-04-25T02:52:03;99277.44;;;10.65;54.37
79269;BME280;68714;48.586;7.772;2023-04-25T02:54:29;99275.50;;;10.68;54.57
79269;BME280;68714;48.586;7.772;2023-04-25T02:56:55;99266.56;;;10.71;54.05
79269;BME280;68714;48.586;7.772;2023-04-25T02:59:20;99264.53;;;10.76;54.41
79269;BME280;68714;48.586;7.772;2023-04-25T03:01:46;99260.75;;;10.82;54.44
79269;BME280;68714;48.586;7.772;2023-04-25T03:04:11;99254.22;;;10.89;54.18
79269;BME280;68714;48.586;7.772;2023-04-25T03:06:36;99245.91;;;10.97;54.31
79269;BME280;68714;48.586;7.772;2023-04-25T03:09:02;99248.13;;;11.04;54.08
79269;BME280;68714;48.586;7.772;2023-04-25T03:11:29;99244.22;;;11.12;54.35
79269;BME280;68714;48.586;7.772;2023-04-25T03:13:54;99241.25;;;11.18;54.05
79269;BME280;68714;48.586;7.772;2023-04-25T03:16:20;99241.88;;;11.23;53.92
79269;BME280;68714;48.586;7.772;2023-04-25T03:18:45;99240.69;;;11.29;54.13
79269;BME280;68714;48.586;7.772;2023-04-25T03:21:10;99239.56;;;11.33;54.46
79269;BME280;68714;48.586;7.772;2023-04-25T03:23:36;99237.66;;;11.36;54.45
79269;BME280;68714;48.586;7.772;2023-04-25T03:26:01;99239.25;;;11.39;54.15
79269;BME280;68714;48.586;7.772;2023-04-25T03:28:27;99233.97;;;11.39;54.44
79269;BME280;68714;48.586;7.772;2023-04-25T03:30:53;99245.31;;;11.41;54.45
79269;BME280;68714;48.586;7.772;2023-04-25T03:33:19;99255.19;;;11.37;54.35
79269;BME280;68714;48.586;7.772;2023-04-25T03:35:44;99245.56;;;11.36;54.55
79269;BME280;68714;48.586;7.772;2023-04-25T03:38:10;99238.41;;;11.38;54.43
79269;BME280;68714;48.586;7.772;2023-04-25T03:40:35;99234.66;;;11.42;54.45
79269;BME280;68714;48.586;7.772;2023-04-25T03:43:00;99229.47;;;11.41;54.72
79269;BME280;68714;48.586;7.772;2023-04-25T03:45:26;99225.09;;;11.40;54.38
79269;BME280;68714;48.586;7.772;2023-04-25T03:47:51;99218.19;;;11.37;54.85
79269;BME280;68714;48.586;7.772;2023-04-25T03:50:17;99226.28;;;11.34;54.91
79269;BME280;68714;48.586;7.772;2023-04-25T03:52:43;99239.56;;;11.33;54.66
79269;BME280;68714;48.586;7.772;2023-04-25T03:55:09;99234.47;;;11.30;54.92
79269;BME280;68714;48.586;7.772;2023-04-25T03:57:34;99229.19;;;11.30;54.93
79269;BME280;68714;48.586;7.772;2023-04-25T04:00:00;99223.06;;;11.29;55.20
79269;BME280;68714;48.586;7.772;2023-04-25T04:02:25;99227.31;;;11.32;55.13
79269;BME280;68714;48.586;7.772;2023-04-25T04:04:51;99226.38;;;11.33;55.05
79269;BME280;68714;48.586;7.772;2023-04-25T04:07:16;99231.81;;;11.30;55.28
79269;BME280;68714;48.586;7.772;2023-04-25T04:09:42;99230.72;;;11.34;55.16
79269;BME280;68714;48.586;7.772;2023-04-25T04:12:07;99225.44;;;11.34;55.24
79269;BME280;68714;48.586;7.772;2023-04-25T04:14:33;99228.84;;;11.36;55.48
79269;BME280;68714;48.586;7.772;2023-04-25T04:16:58;99229.72;;;11.36;55.66
79269;BME280;68714;48.586;7.772;2023-04-25T04:19:23;99226.03;;;11.39;55.56
79269;BME280;68714;48.586;7.772;2023-04-25T04:21:49;99222.47;;;11.40;55.57
79269;BME280;68714;48.586;7.772;2023-04-25T04:24:14;99221.53;;;11.41;55.63
79269;BME280;68714;48.586;7.772;2023-04-25T04:26:42;99233.78;;;11.42;55.37
79269;BME280;68714;48.586;7.772;2023-04-25T04:29:10;99232.78;;;11.45;55.48
79269;BME280;68714;48.586;7.772;2023-04-25T04:31:36;99224.78;;;11.46;55.50
79269;BME280;68714;48.586;7.772;2023-04-25T04:34:02;99221.28;;;11.46;55.36
79269;BME280;68714;48.586;7.772;2023-04-25T04:36:29;99222.22;;;11.45;55.10
79269;BME280;68714;48.586;7.772;2023-04-25T04:38:54;99224.94;;;11.43;55.11
79269;BME280;68714;48.586;7.772;2023-04-25T04:41:21;99224.09;;;11.42;55.35
79269;BME280;68714;48.586;7.772;2023-04-25T04:43:47;99228.84;;;11.36;55.43
79269;BME280;68714;48.586;7.772;2023-04-25T04:46:12;99227.50;;;11.29;55.50
79269;BME280;68714;48.586;7.772;2023-04-25T04:48:38;99231.31;;;11.23;55.51
79269;BME280;68714;48.586;7.772;2023-04-25T04:51:05;99239.22;;;11.23;55.67
79269;BME280;68714;48.586;7.772;2023-04-25T04:53:31;99246.22;;;11.24;55.74
79269;BME280;68714;48.586;7.772;2023-04-25T04:55:57;99244.34;;;11.26;55.41
79269;BME280;68714;48.586;7.772;2023-04-25T04:58:23;99252.13;;;11.29;55.51
79269;BME280;68714;48.586;7.772;2023-04-25T05:00:48;99257.31;;;11.31;55.74
79269;BME280;68714;48.586;7.772;2023-04-25T05:03:14;99251.03;;;11.33;55.37
79269;BME280;68714;48.586;7.772;2023-04-25T05:05:39;99254.34;;;11.37;55.59
79269;BME280;68714;48.586;7.772;2023-04-25T05:08:07;99254.34;;;11.37;55.70
79269;BME280;68714;48.586;7.772;2023-04-25T05:10:33;99249.91;;;11.37;55.70
79269;BME280;68714;48.586;7.772;2023-04-25T05:12:58;99255.09;;;11.39;55.55
79269;BME280;68714;48.586;7.772;2023-04-25T05:15:24;99256.06;;;11.38;55.65
79269;BME280;68714;48.586;7.772;2023-04-25T05:17:49;99251.69;;;11.37;55.31
79269;BME280;68714;48.586;7.772;2023-04-25T05:20:15;99255.34;;;11.34;55.50
79269;BME280;68714;48.586;7.772;2023-04-25T05:22:40;99251.19;;;11.30;55.35
79269;BME280;68714;48.586;7.772;2023-04-25T05:25:07;99252.59;;;11.20;55.55
79269;BME280;68714;48.586;7.772;2023-04-25T05:27:33;99260.94;;;11.12;56.02
79269;BME280;68714;48.586;7.772;2023-04-25T05:29:58;99257.75;;;11.05;56.14
79269;BME280;68714;48.586;7.772;2023-04-25T05:32:24;99260.63;;;11.01;55.92
79269;BME280;68714;48.586;7.772;2023-04-25T05:34:50;99265.16;;;10.99;56.49
79269;BME280;68714;48.586;7.772;2023-04-25T05:37:16;99272.31;;;10.97;56.62
79269;BME280;68714;48.586;7.772;2023-04-25T05:39:42;99273.38;;;10.93;56.57
79269;BME280;68714;48.586;7.772;2023-04-25T05:42:08;99268.25;;;10.89;56.77
79269;BME280;68714;48.586;7.772;2023-04-25T05:44:33;99276.03;;;10.93;56.85
79269;BME280;68714;48.586;7.772;2023-04-25T05:46:59;99284.09;;;10.89;56.74
79269;BME280;68714;48.586;7.772;2023-04-25T05:49:24;99276.91;;;10.76;56.65
79269;BME280;68714;48.586;7.772;2023-04-25T05:51:50;99283.03;;;10.59;57.23
79269;BME280;68714;48.586;7.772;2023-04-25T05:54:15;99297.38;;;10.35;57.69
79269;BME280;68714;48.586;7.772;2023-04-25T05:56:40;99293.72;;;10.19;57.98
79269;BME280;68714;48.586;7.772;2023-04-25T05:59:06;99298.16;;;9.99;58.14
79269;BME280;68714;48.586;7.772;2023-04-25T06:01:33;99308.53;;;9.85;58.80
79269;BME280;68714;48.586;7.772;2023-04-25T06:03:58;99313.63;;;9.69;59.41
79269;BME280;68714;48.586;7.772;2023-04-25T06:06:23;99316.13;;;9.53;59.89
79269;BME280;68714;48.586;7.772;2023-04-25T06:08:49;99308.78;;;9.41;60.20
79269;BME280;68714;48.586;7.772;2023-04-25T06:11:14;99322.50;;;9.28;60.83
79269;BME280;68714;48.586;7.772;2023-04-25T06:13:40;99324.81;;;9.16;61.07
79269;BME280;68714;48.586;7.772;2023-04-25T06:16:05;99325.28;;;9.05;61.43
79269;BME280;68714;48.586;7.772;2023-04-25T06:18:31;99319.44;;;8.98;61.91
79269;BME280;68714;48.586;7.772;2023-04-25T06:20:56;99318.91;;;8.90;62.12
79269;BME280;68714;48.586;7.772;2023-04-25T06:23:22;99327.84;;;8.86;62.20
79269;BME280;68714;48.586;7.772;2023-04-25T06:25:47;99330.69;;;8.81;62.34
79269;BME280;68714;48.586;7.772;2023-04-25T06:28:38;99335.34;;;8.74;63.47
79269;BME280;68714;48.586;7.772;2023-04-25T06:31:03;99335.47;;;8.71;62.15
79269;BME280;68714;48.586;7.772;2023-04-25T06:33:29;99339.22;;;8.66;62.13
79269;BME280;68714;48.586;7.772;2023-04-25T06:35:56;99332.47;;;8.59;62.33
79269;BME280;68714;48.586;7.772;2023-04-25T06:38:24;99341.53;;;8.51;62.41
79269;BME280;68714;48.586;7.772;2023-04-25T06:40:50;99351.34;;;8.48;62.57
79269;BME280;68714;48.586;7.772;2023-04-25T06:43:16;99334.13;;;8.39;61.86
79269;BME280;68714;48.586;7.772;2023-04-25T06:45:42;99357.00;;;8.37;61.86
79269;BME280;68714;48.586;7.772;2023-04-25T06:48:07;99354.63;;;8.31;62.17
79269;BME280;68714;48.586;7.772;2023-04-25T06:50:33;99355.66;;;8.27;62.42
79269;BME280;68714;48.586;7.772;2023-04-25T06:52:59;99362.97;;;8.18;62.53
79269;BME280;68714;48.586;7.772;2023-04-25T06:55:26;99373.75;;;8.12;62.73
79269;BME280;68714;48.586;7.772;2023-04-25T06:57:52;99365.31;;;8.04;62.96
79269;BME280;68714;48.586;7.772;2023-04-25T07:00:18;99370.63;;;8.02;62.98
79269;BME280;68714;48.586;7.772;2023-04-25T07:02:43;99372.50;;;7.99;63.38
79269;BME280;68714;48.586;7.772;2023-04-25T07:05:09;99369.88;;;7.99;63.23
79269;BME280;68714;48.586;7.772;2023-04-25T07:07:35;99383.13;;;7.96;63.58
79269;BME280;68714;48.586;7.772;2023-04-25T07:10:00;99380.50;;;7.96;63.77
79269;BME280;68714;48.586;7.772;2023-04-25T07:12:26;99379.69;;;7.94;63.63
79269;BME280;68714;48.586;7.772;2023-04-25T07:14:51;99394.50;;;7.96;63.67
79269;BME280;68714;48.586;7.772;2023-04-25T07:17:16;99391.75;;;7.99;63.57
79269;BME280;68714;48.586;7.772;2023-04-25T07:19:43;99397.19;;;7.95;63.42
79269;BME280;68714;48.586;7.772;2023-04-25T07:22:09;99394.75;;;7.89;63.21
79269;BME280;68714;48.586;7.772;2023-04-25T07:24:36;99400.84;;;7.91;63.53
79269;BME280;68714;48.586;7.772;2023-04-25T07:27:02;99416.84;;;7.84;63.43
79269;BME280;68714;48.586;7.772;2023-04-25T07:29:28;99409.78;;;7.85;63.63
79269;BME280;68714;48.586;7.772;2023-04-25T07:31:55;99412.31;;;7.88;63.88
79269;BME280;68714;48.586;7.772;2023-04-25T07:34:21;99425.28;;;7.93;63.73
79269;BME280;68714;48.586;7.772;2023-04-25T07:36:46;99414.72;;;7.94;63.55
79269;BME280;68714;48.586;7.772;2023-04-25T07:39:12;99418.88;;;8.00;63.41
79269;BME280;68714;48.586;7.772;2023-04-25T07:41:37;99428.31;;;8.06;63.54
79269;BME280;68714;48.586;7.772;2023-04-25T07:44:03;99429.22;;;8.04;63.63
79269;BME280;68714;48.586;7.772;2023-04-25T07:46:28;99431.78;;;8.06;63.47
79269;BME280;68714;48.586;7.772;2023-04-25T07:48:54;99438.78;;;8.07;63.44
79269;BME280;68714;48.586;7.772;2023-04-25T07:51:19;99438.78;;;8.07;63.43
79269;BME280;68714;48.586;7.772;2023-04-25T07:53:47;99441.56;;;8.02;63.72
79269;BME280;68714;48.586;7.772;2023-04-25T07:56:12;99446.88;;;8.01;63.66
79269;BME280;68714;48.586;7.772;2023-04-25T07:58:38;99442.41;;;8.03;63.73
79269;BME280;68714;48.586;7.772;2023-04-25T08:01:03;99458.06;;;8.06;63.52
79269;BME280;68714;48.586;7.772;2023-04-25T08:03:29;99461.31;;;8.13;63.94
79269;BME280;68714;48.586;7.772;2023-04-25T08:05:55;99469.16;;;8.14;63.92
79269;BME280;68714;48.586;7.772;2023-04-25T08:08:22;99469.03;;;8.17;64.08
79269;BME280;68714;48.586;7.772;2023-04-25T08:10:47;99470.75;;;8.18;63.76
79269;BME280;68714;48.586;7.772;2023-04-25T08:13:14;99466.22;;;8.22;63.74
79269;BME280;68714;48.586;7.772;2023-04-25T08:15:41;99475.63;;;8.29;63.76
79269;BME280;68714;48.586;7.772;2023-04-25T08:18:06;99475.44;;;8.34;63.78
79269;BME280;68714;48.586;7.772;2023-04-25T08:20:32;99469.22;;;8.36;63.67
79269;BME280;68714;48.586;7.772;2023-04-25T08:22:58;99478.53;;;8.45;63.56
79269;BME280;68714;48.586;7.772;2023-04-25T08:25:23;99478.19;;;8.54;63.59
79269;BME280;68714;48.586;7.772;2023-04-25T08:27:49;99485.69;;;8.65;63.60
79269;BME280;68714;48.586;7.772;2023-04-25T08:30:15;99486.34;;;8.70;63.09
79269;BME280;68714;48.586;7.772;2023-04-25T08:32:40;99495.53;;;8.82;63.15
79269;BME280;68714;48.586;7.772;2023-04-25T08:35:06;99496.25;;;8.86;62.76
79269;BME280;68714;48.586;7.772;2023-04-25T08:37:32;99492.66;;;8.88;63.12
79269;BME280;68714;48.586;7.772;2023-04-25T08:39:58;99490.69;;;8.93;62.91
79269;BME280;68714;48.586;7.772;2023-04-25T08:42:24;99492.22;;;8.99;62.72
79269;BME280;68714;48.586;7.772;2023-04-25T08:44:50;99495.22;;;9.12;62.91
79269;BME280;68714;48.586;7.772;2023-04-25T08:47:21;99494.91;;;9.20;62.71
79269;BME280;68714;48.586;7.772;2023-04-25T08:49:47;99501.63;;;9.27;62.60
79269;BME280;68714;48.586;7.772;2023-04-25T08:52:14;99509.09;;;9.38;62.60
79269;BME280;68714;48.586;7.772;2023-04-25T08:54:43;99508.16;;;9.39;62.49
79269;BME280;68714;48.586;7.772;2023-04-25T08:57:11;99510.06;;;9.35;62.27
79269;BME280;68714;48.586;7.772;2023-04-25T08:59:39;99522.38;;;9.35;62.48
79269;BME280;68714;48.586;7.772;2023-04-25T09:02:09;99518.16;;;9.31;62.49
79269;BME280;68714;48.586;7.772;2023-04-25T09:04:39;99516.59;;;9.26;62.55
79269;BME280;68714;48.586;7.772;2023-04-25T09:07:06;99529.19;;;9.18;62.25
79269;BME280;68714;48.586;7.772;2023-04-25T09:09:31;99530.16;;;9.16;62.55
79269;BME280;68714;48.586;7.772;2023-04-25T09:11:56;99536.97;;;9.21;62.78
79269;BME280;68714;48.586;7.772;2023-04-25T09:14:23;99541.25;;;9.24;62.63
79269;BME280;68714;48.586;7.772;2023-04-25T09:19:29;99551.75;;;9.46;62.73
79269;BME280;68714;48.586;7.772;2023-04-25T09:21:59;99541.97;;;9.50;62.44
79269;BME280;68714;48.586;7.772;2023-04-25T09:24:41;99554.75;;;9.59;62.51
79269;BME280;68714;48.586;7.772;2023-04-25T09:27:09;99545.78;;;9.63;62.51
79269;BME280;68714;48.586;7.772;2023-04-25T09:29:37;99551.66;;;9.70;62.72
79269;BME280;68714;48.586;7.772;2023-04-25T09:32:23;99557.38;;;9.79;62.64
79269;BME280;68714;48.586;7.772;2023-04-25T09:34:53;99553.97;;;9.77;62.11
79269;BME280;68714;48.586;7.772;2023-04-25T09:37:24;99558.56;;;9.72;61.72
79269;BME280;68714;48.586;7.772;2023-04-25T09:39:52;99563.78;;;9.74;62.31
79269;BME280;68714;48.586;7.772;2023-04-25T09:42:22;99568.00;;;9.78;62.25
79269;BME280;68714;48.586;7.772;2023-04-25T09:44:52;99565.78;;;9.89;62.36
79269;BME280;68714;48.586;7.772;2023-04-25T09:47:18;99569.31;;;9.88;62.88
79269;BME280;68714;48.586;7.772;2023-04-25T09:49:47;99563.38;;;10.04;61.99
79269;BME280;68714;48.586;7.772;2023-04-25T09:52:17;99570.06;;;10.12;62.03
79269;BME280;68714;48.586;7.772;2023-04-25T09:54:47;99570.44;;;10.24;61.89
79269;BME280;68714;48.586;7.772;2023-04-25T09:57:17;99579.41;;;10.40;61.91
79269;BME280;68714;48.586;7.772;2023-04-25T09:59:45;99586.63;;;10.56;61.95
79269;BME280;68714;48.586;7.772;2023-04-25T10:02:12;99586.13;;;10.66;62.20
79269;BME280;68714;48.586;7.772;2023-04-25T10:04:38;99584.81;;;10.77;62.02
79269;BME280;68714;48.586;7.772;2023-04-25T10:07:08;99578.22;;;10.85;62.10
79269;BME280;68714;48.586;7.772;2023-04-25T10:09:36;99588.56;;;10.90;61.64
79269;BME280;68714;48.586;7.772;2023-04-25T10:12:03;99582.00;;;10.99;61.89
79269;BME280;68714;48.586;7.772;2023-04-25T10:14:31;99584.41;;;11.03;61.33
79269;BME280;68714;48.586;7.772;2023-04-25T10:16:58;99579.63;;;11.12;61.74
79269;BME280;68714;48.586;7.772;2023-04-25T10:19:25;99581.78;;;11.22;61.81
79269;BME280;68714;48.586;7.772;2023-04-25T10:24:33;99582.28;;;11.48;61.39
79269;BME280;68714;48.586;7.772;2023-04-25T10:27:01;99577.41;;;11.58;61.23
79269;BME280;68714;48.586;7.772;2023-04-25T10:29:28;99571.66;;;11.67;61.59
79269;BME280;68714;48.586;7.772;2023-04-25T10:31:54;99567.50;;;11.79;61.07
79269;BME280;68714;48.586;7.772;2023-04-25T10:34:24;99577.13;;;11.99;61.46
79269;BME280;68714;48.586;7.772;2023-04-25T10:36:52;99581.06;;;12.25;61.42
79269;BME280;68714;48.586;7.772;2023-04-25T10:39:25;99582.81;;;12.42;61.02
79269;BME280;68714;48.586;7.772;2023-04-25T10:41:56;99579.88;;;12.64;60.89
79269;BME280;68714;48.586;7.772;2023-04-25T10:44:22;99581.34;;;12.86;60.72
79269;BME280;68714;48.586;7.772;2023-04-25T10:46:48;99579.03;;;13.12;60.75
79269;BME280;68714;48.586;7.772;2023-04-25T10:49:34;99577.78;;;13.35;60.25
79269;BME280;68714;48.586;7.772;2023-04-25T10:55:02;99573.72;;;13.90;59.43
79269;BME280;68714;48.586;7.772;2023-04-25T10:57:40;99557.47;;;14.11;59.31
79269;BME280;68714;48.586;7.772;2023-04-25T11:00:07;99563.84;;;14.37;59.24
79269;BME280;68714;48.586;7.772;2023-04-25T11:02:51;99565.94;;;14.46;58.78
79269;BME280;68714;48.586;7.772;2023-04-25T11:05:33;99560.13;;;14.39;58.30
79269;BME280;68714;48.586;7.772;2023-04-25T11:08:00;99568.47;;;14.33;58.49
79269;BME280;68714;48.586;7.772;2023-04-25T11:10:31;99570.84;;;14.09;57.98
79269;BME280;68714;48.586;7.772;2023-04-25T11:13:28;99587.56;;;13.65;56.70
79269;BME280;68714;48.586;7.772;2023-04-25T11:15:54;99587.53;;;13.34;58.04
79269;BME280;68714;48.586;7.772;2023-04-25T11:18:20;99571.63;;;13.18;57.75
79269;BME280;68714;48.586;7.772;2023-04-25T11:20:47;99577.25;;;13.12;57.33
79269;BME280;68714;48.586;7.772;2023-04-25T11:23:15;99577.06;;;13.15;58.19
79269;BME280;68714;48.586;7.772;2023-04-25T11:25:41;99580.50;;;13.33;57.94
79269;BME280;68714;48.586;7.772;2023-04-25T11:28:07;99583.06;;;13.51;57.20
79269;BME280;68714;48.586;7.772;2023-04-25T11:30:32;99569.31;;;13.74;57.99
79269;BME280;68714;48.586;7.772;2023-04-25T11:32:58;99582.09;;;13.98;57.71
79269;BME280;68714;48.586;7.772;2023-04-25T11:35:24;99570.84;;;14.09;57.13
79269;BME280;68714;48.586;7.772;2023-04-25T11:37:51;99572.94;;;14.18;57.30
79269;BME280;68714;48.586;7.772;2023-04-25T11:40:17;99569.34;;;14.34;57.28
79269;BME280;68714;48.586;7.772;2023-04-25T11:42:44;99565.34;;;14.55;57.09
79269;BME280;68714;48.586;7.772;2023-04-25T11:45:11;99557.97;;;14.75;57.00
79269;BME280;68714;48.586;7.772;2023-04-25T11:47:37;99562.06;;;15.08;57.16
79269;BME280;68714;48.586;7.772;2023-04-25T11:50:06;99566.66;;;15.33;56.52
79269;BME280;68714;48.586;7.772;2023-04-25T11:52:40;99571.06;;;15.47;55.67
79269;BME280;68714;48.586;7.772;2023-04-25T11:55:19;99569.88;;;15.38;54.54
79269;BME280;68714;48.586;7.772;2023-04-25T11:57:47;99568.31;;;15.07;54.74
79269;BME280;68714;48.586;7.772;2023-04-25T12:00:15;99564.88;;;14.34;52.57
79269;BME280;68714;48.586;7.772;2023-04-25T12:02:52;99565.53;;;14.09;54.98
79269;BME280;68714;48.586;7.772;2023-04-25T12:05:18;99568.09;;;13.80;54.87
79269;BME280;68714;48.586;7.772;2023-04-25T12:07:45;99570.22;;;13.59;54.94
79269;BME280;68714;48.586;7.772;2023-04-25T12:10:12;99571.38;;;13.39;55.18
79269;BME280;68714;48.586;7.772;2023-04-25T12:12:41;99577.59;;;13.38;55.44
79269;BME280;68714;48.586;7.772;2023-04-25T12:15:11;99577.91;;;13.32;55.45
79269;BME280;68714;48.586;7.772;2023-04-25T12:17:38;99584.25;;;13.13;54.67
79269;BME280;68714;48.586;7.772;2023-04-25T12:20:08;99599.47;;;12.94;55.13
79269;BME280;68714;48.586;7.772;2023-04-25T12:22:34;99566.28;;;12.71;55.37
79269;BME280;68714;48.586;7.772;2023-04-25T12:25:00;99601.00;;;12.15;55.36
79269;BME280;68714;48.586;7.772;2023-04-25T12:27:26;99636.00;;;11.49;56.43
79269;BME280;68714;48.586;7.772;2023-04-25T12:29:56;99643.28;;;10.86;57.13
79269;BME280;68714;48.586;7.772;2023-04-25T12:32:22;99663.50;;;10.48;58.73
79269;BME280;68714;48.586;7.772;2023-04-25T12:34:47;99659.56;;;10.15;58.75
79269;BME280;68714;48.586;7.772;2023-04-25T12:37:13;99648.84;;;9.77;59.11
79269;BME280;68714;48.586;7.772;2023-04-25T12:39:38;99659.25;;;9.58;59.87
79269;BME280;68714;48.586;7.772;2023-04-25T12:42:04;99655.72;;;9.37;60.12
79269;BME280;68714;48.586;7.772;2023-04-25T12:44:30;99662.31;;;9.25;60.66
79269;BME280;68714;48.586;7.772;2023-04-25T12:46:56;99652.75;;;9.23;60.96
79269;BME280;68714;48.586;7.772;2023-04-25T12:49:21;99647.19;;;9.31;61.06
79269;BME280;68714;48.586;7.772;2023-04-25T12:51:47;99653.50;;;9.49;61.27
79269;BME280;68714;48.586;7.772;2023-04-25T12:54:13;99663.47;;;9.85;61.22
79269;BME280;68714;48.586;7.772;2023-04-25T12:56:40;99659.91;;;10.28;61.07
79269;BME280;68714;48.586;7.772;2023-04-25T12:59:06;99655.78;;;10.83;60.88
79269;BME280;68714;48.586;7.772;2023-04-25T13:01:31;99663.94;;;11.35;60.10
79269;BME280;68714;48.586;7.772;2023-04-25T13:03:58;99663.91;;;11.54;59.14
79269;BME280;68714;48.586;7.772;2023-04-25T13:06:23;99658.75;;;11.70;59.15
79269;BME280;68714;48.586;7.772;2023-04-25T13:08:49;99663.69;;;11.95;59.06